Time;durP1;ratioP1;P1;durP2;ratioP2;P2;SDS_P1;SDS_P2;PMS_P1;PMS_P2;Temp;Humidity;BMP_temperature;BMP_pressure;BME280_temperature;BME280_humidity;BME280_pressure;Samples;Min_cycle;Max_cycle;Signal;HPM_P1;HPM_P2
2022/08/14 00:02:14;;;;;;;21.80;13.60;;;;;;;19.77;73.48;98484.79;106002;1277;110091;-73
2022/08/14 00:04:42;;;;;;;22.10;13.60;;;;;;;19.78;73.49;98488.57;105840;1277;94749;-72
2022/08/14 00:07:12;;;;;;;21.10;12.90;;;;;;;19.78;73.55;98489.32;105971;1276;106523;-72
2022/08/14 00:09:43;;;;;;;22.10;13.40;;;;;;;19.78;73.58;98483.52;105959;1276;96425;-72
2022/08/14 00:12:34;;;;;;;22.10;13.70;;;;;;;19.76;73.63;98479.84;105993;1275;96960;-73
2022/08/14 00:15:17;;;;;;;22.40;12.90;;;;;;;19.75;73.67;98484.48;105958;1276;109467;-73
2022/08/14 00:17:46;;;;;;;21.40;12.60;;;;;;;19.75;73.76;98482.77;105996;1276;96517;-73
2022/08/14 00:20:30;;;;;;;22.00;12.40;;;;;;;19.74;73.67;98480.17;106028;1276;107652;-73
2022/08/14 00:23:12;;;;;;;23.20;12.40;;;;;;;19.73;73.83;98476.84;106026;1276;96600;-73
2022/08/14 00:25:48;;;;;;;21.00;13.00;;;;;;;19.73;73.70;98477.55;106038;1276;96545;-73
2022/08/14 00:28:26;;;;;;;20.20;12.50;;;;;;;19.74;73.89;98480.02;106052;1276;110131;-76
2022/08/14 00:31:02;;;;;;;21.70;12.20;;;;;;;19.75;73.82;98477.92;106063;1276;94649;-75
2022/08/14 00:33:31;;;;;;;18.90;10.00;;;;;;;19.74;73.81;98478.35;105939;1277;109025;-74
2022/08/14 00:36:21;;;;;;;17.50;9.60;;;;;;;19.71;73.77;98477.23;105973;1276;94362;-74
2022/08/14 00:39:13;;;;;;;16.50;8.90;;;;;;;19.69;73.82;98476.11;105992;1277;95620;-74
2022/08/14 00:41:41;;;;;;;18.80;9.70;;;;;;;19.67;73.92;98479.54;106073;1276;110049;-74
2022/08/14 00:44:09;;;;;;;17.80;9.40;;;;;;;19.67;73.83;98480.20;106094;1276;96664;-74
2022/08/14 00:46:37;;;;;;;17.60;8.90;;;;;;;19.67;73.89;98480.08;106081;1276;107677;-74
2022/08/14 00:49:07;;;;;;;18.10;9.60;;;;;;;19.68;73.92;98476.92;105991;1277;96532;-73
2022/08/14 00:51:44;;;;;;;17.80;8.60;;;;;;;19.67;73.90;98477.34;106020;1277;96597;-72
2022/08/14 00:54:15;;;;;;;17.10;9.00;;;;;;;19.68;74.01;98477.52;105963;1276;110039;-72
2022/08/14 00:56:50;;;;;;;18.10;9.00;;;;;;;19.68;73.98;98477.10;105992;1277;95209;-72
2022/08/14 00:59:27;;;;;;;16.10;8.20;;;;;;;19.67;74.10;98477.55;105965;1276;107818;-73
2022/08/14 01:01:58;;;;;;;17.50;9.00;;;;;;;19.67;74.16;98479.34;105995;1276;96671;-73
2022/08/14 01:04:30;;;;;;;16.30;9.00;;;;;;;19.67;74.13;98481.19;105889;1277;96526;-73
2022/08/14 01:07:21;;;;;;;17.90;8.30;;;;;;;19.67;74.11;98486.97;105999;1276;110115;-72
2022/08/14 01:10:00;;;;;;;15.90;8.40;;;;;;;19.65;74.17;98484.20;105983;1276;94903;-71
2022/08/14 01:12:28;;;;;;;17.70;8.90;;;;;;;19.64;74.12;98488.25;105976;1276;109602;-76
2022/08/14 01:14:59;;;;;;;18.70;9.40;;;;;;;19.64;74.10;98481.33;105980;1276;96399;-72
2022/08/14 01:23:13;;;;;;;15.60;8.30;;;;;;;19.62;74.21;98485.64;105978;1276;94271;-74
2022/08/14 01:25:47;;;;;;;16.80;8.90;;;;;;;19.61;74.20;98484.34;105986;1276;107760;-74
2022/08/14 01:28:20;;;;;;;17.60;9.30;;;;;;;19.60;74.19;98487.19;105990;1276;94382;-75
2022/08/14 01:31:13;;;;;;;21.20;9.20;;;;;;;19.57;74.24;98489.10;105971;1276;96636;-74
2022/08/14 01:33:46;;;;;;;18.60;8.50;;;;;;;19.57;74.27;98489.75;106020;1276;110077;-72
2022/08/14 01:36:36;;;;;;;17.20;8.50;;;;;;;19.56;74.32;98492.94;106017;1276;96620;-70
2022/08/14 01:39:17;;;;;;;19.20;9.10;;;;;;;19.55;74.33;98492.48;105969;1276;109036;-72
2022/08/14 01:41:55;;;;;;;18.60;9.90;;;;;;;19.55;74.38;98492.27;105989;1276;96776;-70
2022/08/14 01:44:29;;;;;;;18.90;9.30;;;;;;;19.54;74.35;98488.09;105980;1276;96545;-73
2022/08/14 01:47:11;;;;;;;18.10;9.30;;;;;;;19.55;74.33;98492.14;105975;1276;110080;-73
2022/08/14 01:49:51;;;;;;;19.40;8.80;;;;;;;19.54;74.37;98492.02;105981;1277;96614;-73
2022/08/14 01:52:31;;;;;;;18.10;8.70;;;;;;;19.55;74.38;98492.77;105975;1276;107710;-75
2022/08/14 01:55:19;;;;;;;18.50;9.30;;;;;;;19.55;74.49;98492.97;105952;1276;96644;-73
2022/08/14 01:57:47;;;;;;;16.40;8.60;;;;;;;19.55;74.51;98492.77;106017;1276;96535;-73
2022/08/14 02:00:29;;;;;;;18.60;8.60;;;;;;;19.55;74.46;98498.20;105964;1276;110032;-73
2022/08/14 02:03:03;;;;;;;18.00;9.30;;;;;;;19.55;74.46;98492.86;105935;1276;94267;-72
2022/08/14 02:05:34;;;;;;;18.10;9.40;;;;;;;19.55;74.51;98501.40;105941;1276;107842;-74
2022/08/14 02:08:07;;;;;;;17.00;8.80;;;;;;;19.55;74.52;98500.33;106006;1276;96616;-73
2022/08/14 02:10:38;;;;;;;19.60;10.30;;;;;;;19.55;74.60;98504.64;105948;1276;96545;-72
2022/08/14 02:13:16;;;;;;;18.20;9.60;;;;;;;19.54;74.51;98502.27;105943;1276;110001;-72
2022/08/14 02:15:44;;;;;;;19.30;9.90;;;;;;;19.52;74.43;98499.65;105968;1276;96571;-70
2022/08/14 02:18:15;;;;;;;18.60;9.70;;;;;;;19.51;74.45;98497.44;105967;1276;107742;-72
2022/08/14 02:20:47;;;;;;;22.10;11.10;;;;;;;19.51;74.62;98490.77;105960;1276;96514;-72
2022/08/14 02:23:19;;;;;;;19.00;10.20;;;;;;;19.51;74.57;98489.89;105929;1276;94322;-71
2022/08/14 02:26:05;;;;;;;18.70;11.00;;;;;;;19.51;74.57;98493.87;105890;1276;110107;-72
2022/08/14 02:28:55;;;;;;;19.60;10.60;;;;;;;19.51;74.65;98491.21;105930;1276;96597;-73
2022/08/14 02:31:32;;;;;;;20.20;10.80;;;;;;;19.50;74.64;98491.04;105907;1276;107757;-72
2022/08/14 02:34:23;;;;;;;17.10;9.50;;;;;;;19.50;74.55;98493.80;105927;1276;94338;-73
2022/08/14 02:36:58;;;;;;;20.00;9.40;;;;;;;19.49;74.65;98495.36;105942;1276;96612;-71
2022/08/14 02:39:36;;;;;;;18.70;9.30;;;;;;;19.47;74.67;98496.13;105748;1276;110038;-71
2022/08/14 02:42:07;;;;;;;19.20;10.00;;;;;;;19.46;74.68;98499.43;105953;1276;96603;-70
2022/08/14 02:44:43;;;;;;;16.60;9.50;;;;;;;19.45;74.69;98497.35;105929;1276;107844;-72
2022/08/14 02:47:18;;;;;;;19.20;10.80;;;;;;;19.45;74.74;98498.30;105844;1276;96736;-72
2022/08/14 02:49:48;;;;;;;19.40;9.70;;;;;;;19.43;74.67;98503.16;105954;1276;94279;-72
2022/08/14 02:52:22;;;;;;;20.60;10.50;;;;;;;19.43;74.56;98508.83;105885;1276;109958;-71
2022/08/14 02:55:09;;;;;;;20.40;11.10;;;;;;;19.42;74.65;98506.17;105897;1276;94315;-73
2022/08/14 02:57:39;;;;;;;20.10;11.20;;;;;;;19.41;74.63;98509.05;105853;1276;107799;-72
2022/08/14 03:00:11;;;;;;;19.50;10.80;;;;;;;19.40;74.68;98506.23;105848;1277;96533;-73
2022/08/14 03:02:45;;;;;;;21.10;11.70;;;;;;;19.39;74.75;98507.11;105945;1276;96760;-74
2022/08/14 03:05:29;;;;;;;21.60;12.20;;;;;;;19.38;74.71;98506.52;105870;1276;109792;-73
2022/08/14 03:08:08;;;;;;;20.40;12.40;;;;;;;19.36;74.67;98508.89;105909;1276;96580;-73
2022/08/14 03:10:39;;;;;;;22.60;12.30;;;;;;;19.35;74.76;98509.61;105908;1276;107060;-73
2022/08/14 03:13:18;;;;;;;22.60;13.30;;;;;;;19.33;74.70;98508.27;105855;1276;96500;-73
2022/08/14 03:15:52;;;;;;;;;;;;;;;19.32;74.76;98504.81;105973;1276;96506;-73
2022/08/14 03:18:26;;;;;;;20.40;12.30;;;;;;;19.29;74.82;98503.60;105918;1276;109856;-74
2022/08/14 03:21:06;;;;;;;22.40;13.40;;;;;;;19.28;74.81;98502.77;106001;1276;96629;-73
2022/08/14 03:23:35;;;;;;;24.40;14.40;;;;;;;19.27;74.84;98504.19;105885;1275;107690;-72
2022/08/14 03:26:08;;;;;;;22.30;13.70;;;;;;;19.26;74.86;98503.78;105882;1276;96608;-71
2022/08/14 03:28:48;;;;;;;24.10;14.60;;;;;;;19.26;74.76;98502.21;105985;1276;96506;-71
2022/08/14 03:31:22;;;;;;;25.60;14.30;;;;;;;19.25;74.80;98504.77;105897;1276;110106;-72
2022/08/14 03:33:55;;;;;;;26.10;15.30;;;;;;;19.25;74.75;98504.95;105892;1276;96546;-72
2022/08/14 03:36:31;;;;;;;24.90;14.60;;;;;;;19.24;74.77;98507.38;105873;1276;107740;-72
2022/08/14 03:39:20;;;;;;;23.30;13.60;;;;;;;19.22;74.84;98508.91;105838;1276;96632;-72
2022/08/14 03:41:53;;;;;;;23.00;13.60;;;;;;;19.20;74.83;98508.08;105927;1276;96558;-71
2022/08/14 03:44:24;;;;;;;22.70;13.90;;;;;;;19.19;74.79;98508.08;105961;1276;109133;-72
2022/08/14 03:47:11;;;;;;;23.40;14.40;;;;;;;19.18;74.91;98508.80;105901;1276;96555;-73
2022/08/14 03:49:45;;;;;;;22.40;13.20;;;;;;;19.19;74.90;98509.08;105892;1276;107742;-73
2022/08/14 03:52:17;;;;;;;25.90;15.20;;;;;;;19.21;74.96;98507.95;104882;1275;1398511;-72
2022/08/14 03:55:11;;;;;;;22.60;14.10;;;;;;;19.23;75.00;98507.77;105871;1276;94286;-73
2022/08/14 03:57:40;;;;;;;22.30;14.20;;;;;;;19.24;74.95;98507.05;105945;1276;110105;-73
2022/08/14 04:00:12;;;;;;;23.70;13.90;;;;;;;19.25;74.96;98506.05;105877;1276;97541;-72
2022/08/14 04:03:03;;;;;;;24.20;15.40;;;;;;;19.25;75.02;98509.97;105915;1276;109305;-73
2022/08/14 04:05:34;;;;;;;22.50;14.50;;;;;;;19.26;75.00;98507.23;105971;1276;97029;-72
2022/08/14 04:08:10;;;;;;;23.30;14.70;;;;;;;19.25;74.98;98507.68;105919;1276;96537;-71
2022/08/14 04:10:58;;;;;;;24.70;15.70;;;;;;;19.25;75.08;98502.45;105854;1276;109761;-72
2022/08/14 04:13:34;;;;;;;24.50;15.10;;;;;;;19.26;74.98;98499.52;105929;1276;96639;-71
2022/08/14 04:16:05;;;;;;;25.50;14.70;;;;;;;19.24;75.01;98495.42;105895;1276;107542;-71
2022/08/14 04:18:38;;;;;;;26.60;16.30;;;;;;;19.24;74.96;98493.30;105812;1276;96571;-72
2022/08/14 04:21:10;;;;;;;24.80;15.80;;;;;;;19.21;74.85;98487.11;105838;1276;96633;-70
2022/08/14 04:23:39;;;;;;;26.40;15.40;;;;;;;19.17;74.93;98486.64;105851;1276;110089;-72
2022/08/14 04:26:09;;;;;;;29.20;15.50;;;;;;;19.17;75.03;98487.05;105858;1276;96527;-72
2022/08/14 04:28:54;;;;;;;25.30;15.00;;;;;;;19.18;75.12;98493.54;105869;1276;107747;-70
2022/08/14 04:31:41;;;;;;;26.90;15.80;;;;;;;19.17;75.00;98493.94;105830;1276;96555;-72
2022/08/14 04:34:29;;;;;;;24.70;15.30;;;;;;;19.17;75.05;98494.06;105899;1276;96620;-72
2022/08/14 04:45:23;;;;;;;25.40;16.00;;;;;;;19.24;75.21;98493.25;105924;1275;96610;-72
2022/08/14 04:50:45;;;;;;;24.40;15.40;;;;;;;19.28;75.29;98496.90;105999;1276;109807;-73
2022/08/14 04:53:27;;;;;;;25.00;15.50;;;;;;;19.31;75.36;98494.42;105946;1276;96497;-72
2022/08/14 04:56:09;;;;;;;24.70;15.50;;;;;;;19.34;75.36;98496.14;105957;1276;105806;-73
2022/08/14 04:59:05;;;;;;;25.00;14.60;;;;;;;19.38;75.39;98496.43;105968;1276;97367;-71
2022/08/14 05:01:43;;;;;;;26.50;16.30;;;;;;;19.41;75.44;98496.14;106012;1276;96437;-71
2022/08/14 05:04:19;;;;;;;26.70;16.70;;;;;;;19.43;75.26;98497.84;105988;1276;110084;-71
2022/08/14 05:06:51;;;;;;;25.00;14.90;;;;;;;19.42;75.15;98499.24;106070;1276;94261;-70
2022/08/14 05:09:23;;;;;;;26.80;16.00;;;;;;;19.40;75.23;98499.98;105982;1276;107978;-71
2022/08/14 05:11:56;;;;;;;25.90;15.80;;;;;;;19.40;75.31;98501.31;105916;1276;94272;-71
2022/08/14 05:14:45;;;;;;;26.70;15.20;;;;;;;19.41;75.45;98502.55;105936;1276;96658;-69
2022/08/14 05:17:25;;;;;;;28.80;15.10;;;;;;;19.44;75.48;98503.95;106057;1276;109645;-69
2022/08/14 05:20:11;;;;;;;26.50;16.30;;;;;;;19.48;75.43;98506.89;106201;1276;96600;-71
2022/08/14 05:23:01;;;;;;;30.90;16.30;;;;;;;19.51;75.51;98506.05;106048;1275;106782;-74
2022/08/14 05:25:28;;;;;;;26.40;15.50;;;;;;;19.53;75.44;98503.89;105906;1276;96644;-71
2022/08/14 05:28:17;;;;;;;24.50;15.10;;;;;;;19.55;75.42;98505.63;105944;1276;96533;-73
2022/08/14 05:30:56;;;;;;;24.40;16.10;;;;;;;19.57;75.52;98506.94;105915;1276;110158;-70
2022/08/14 05:33:27;;;;;;;24.40;15.20;;;;;;;19.61;75.44;98505.17;105941;1276;96504;-70
2022/08/14 05:36:01;;;;;;;24.50;15.50;;;;;;;19.68;75.47;98500.71;105897;1276;106421;-70
2022/08/14 05:38:32;;;;;;;23.80;15.00;;;;;;;19.74;75.58;98492.69;105925;1276;95648;-71
2022/08/14 05:41:04;;;;;;;23.80;14.50;;;;;;;19.82;75.48;98489.92;105930;1276;96530;-72
2022/08/14 05:43:35;;;;;;;26.10;16.10;;;;;;;19.90;75.46;98491.35;105957;1276;110102;-73
2022/08/14 05:46:14;;;;;;;24.10;15.60;;;;;;;19.97;75.56;98490.03;105958;1276;96524;-70
2022/08/14 05:48:47;;;;;;;24.50;15.90;;;;;;;20.05;75.41;98491.01;105855;1276;109637;-70
2022/08/14 05:51:15;;;;;;;24.40;14.90;;;;;;;20.14;75.41;98490.17;105850;1276;94248;-68
2022/08/14 05:53:43;;;;;;;25.40;14.10;;;;;;;20.21;75.42;98488.44;105772;1276;96626;-68
2022/08/14 05:56:28;;;;;;;22.30;14.30;;;;;;;20.30;75.44;98492.53;105782;1276;111012;-68
2022/08/14 05:58:56;;;;;;;24.20;14.90;;;;;;;20.35;75.39;98488.05;105844;1276;95334;-70
2022/08/14 06:01:27;;;;;;;23.90;14.90;;;;;;;20.41;75.36;98490.66;105675;1276;107066;-69
2022/08/14 06:03:58;;;;;;;23.30;14.10;;;;;;;20.44;75.57;98494.03;105790;1276;95005;-70
2022/08/14 06:06:26;;;;;;;23.80;13.90;;;;;;;20.46;75.34;98494.27;105818;1276;96546;-70
2022/08/14 06:08:54;;;;;;;24.30;14.70;;;;;;;20.48;75.36;98493.13;105781;1276;110083;-70
2022/08/14 06:11:22;;;;;;;23.50;14.70;;;;;;;20.53;75.48;98491.31;105826;1276;96548;-69
2022/08/14 06:13:58;;;;;;;23.80;14.00;;;;;;;20.59;75.48;98487.84;105906;1276;107850;-72
2022/08/14 06:16:26;;;;;;;23.90;14.80;;;;;;;20.64;75.55;98485.08;105853;1276;96593;-71
2022/08/14 06:18:55;;;;;;;23.30;14.30;;;;;;;20.69;75.53;98487.54;105883;1276;96642;-70
2022/08/14 06:21:27;;;;;;;24.10;13.70;;;;;;;20.73;75.21;98490.16;105894;1276;110227;-70
2022/08/14 06:23:56;;;;;;;21.80;13.30;;;;;;;20.78;75.48;98492.56;105851;1276;94261;-70
2022/08/14 06:26:26;;;;;;;20.60;12.80;;;;;;;20.82;75.38;98498.69;105888;1276;108577;-71
2022/08/14 06:28:57;;;;;;;25.50;14.60;;;;;;;20.86;75.37;98500.14;105884;1276;96782;-70
2022/08/14 06:31:24;;;;;;;25.60;15.70;;;;;;;20.85;75.06;98508.05;105851;1276;96531;-71
2022/08/14 06:33:53;;;;;;;25.90;14.10;;;;;;;20.87;75.43;98509.67;105816;1276;109554;-70
2022/08/14 06:36:40;;;;;;;26.30;14.10;;;;;;;20.91;75.20;98509.63;105854;1275;95181;-71
2022/08/14 06:39:08;;;;;;;23.00;14.50;;;;;;;20.94;75.38;98507.91;105790;1276;107806;-70
2022/08/14 06:41:41;;;;;;;23.80;14.10;;;;;;;20.95;75.20;98510.13;105797;1276;95351;-70
2022/08/14 06:44:27;;;;;;;24.00;14.90;;;;;;;20.93;75.36;98517.16;105937;1276;96561;-72
2022/08/14 06:47:03;;;;;;;25.60;15.30;;;;;;;20.92;75.30;98521.48;105863;1276;109175;-71
2022/08/14 06:49:32;;;;;;;22.30;13.50;;;;;;;20.91;75.05;98519.41;105771;1276;96269;-70
2022/08/14 06:52:07;;;;;;;23.60;16.30;;;;;;;20.89;75.07;98523.45;105830;1276;107774;-71
2022/08/14 06:54:35;;;;;;;25.40;15.70;;;;;;;20.89;75.30;98525.86;105776;1276;97356;-70
2022/08/14 06:57:03;;;;;;;26.10;15.10;;;;;;;20.88;75.12;98528.77;105806;1276;96576;-71
2022/08/14 06:59:31;;;;;;;23.20;15.00;;;;;;;20.88;75.28;98530.63;105970;1276;110017;-72
2022/08/14 07:07:36;;;;;;;24.00;14.60;;;;;;;20.77;75.20;98531.93;105851;1277;96521;-69
2022/08/14 07:10:07;;;;;;;24.70;14.70;;;;;;;20.76;75.03;98531.13;106027;1275;96522;-70
2022/08/14 07:12:45;;;;;;;22.30;14.40;;;;;;;20.75;75.06;98531.09;106118;1276;110002;-68
2022/08/14 07:15:32;;;;;;;24.30;15.60;;;;;;;20.73;75.23;98534.61;106020;1276;96603;-73
2022/08/14 07:18:08;;;;;;;24.80;14.90;;;;;;;20.68;74.87;98530.52;105923;1276;107803;-73
2022/08/14 07:20:38;;;;;;;24.80;16.10;;;;;;;20.65;75.05;98533.71;105951;1276;96456;-73
2022/08/14 07:23:08;;;;;;;23.40;15.00;;;;;;;20.68;75.06;98536.45;105936;1276;94908;-76
2022/08/14 07:25:50;;;;;;;28.40;19.60;;;;;;;20.71;75.29;98536.12;105906;1276;110269;-79
2022/08/14 07:28:24;;;;;;;29.60;19.80;;;;;;;20.72;75.16;98533.98;105924;1276;96735;-81
2022/08/14 07:30:56;;;;;;;28.10;18.80;;;;;;;20.74;75.18;98534.08;105881;1276;107589;-84
2022/08/14 07:33:39;;;;;;;27.00;16.90;;;;;;;20.80;75.29;98535.02;105871;1278;96660;-74
2022/08/14 07:36:13;;;;;;;27.00;17.30;;;;;;;20.84;75.20;98532.74;105924;1277;96710;-82
2022/08/14 07:38:59;;;;;;;26.80;16.60;;;;;;;20.90;75.23;98531.32;105861;1277;110104;-82
2022/08/14 07:41:30;;;;;;;24.00;16.20;;;;;;;20.96;75.15;98530.77;105989;1276;94245;-81
2022/08/14 07:44:02;;;;;;;23.30;15.80;;;;;;;21.00;75.15;98528.96;106031;1276;106718;-81
2022/08/14 07:46:50;;;;;;;25.30;16.80;;;;;;;21.08;74.98;98530.13;105984;1276;96537;-80
2022/08/14 07:49:21;;;;;;;24.20;15.90;;;;;;;21.37;74.68;98530.64;105879;1276;94263;-80
2022/08/14 07:51:51;;;;;;;26.10;17.10;;;;;;;21.74;74.49;98522.80;105978;1276;110122;-80
2022/08/14 07:54:19;;;;;;;23.30;16.20;;;;;;;21.84;74.87;98520.95;105978;1276;96693;-79
2022/08/14 07:57:00;;;;;;;25.90;16.60;;;;;;;21.93;75.14;98521.14;105948;1276;107680;-79
2022/08/14 07:59:33;;;;;;;26.30;18.10;;;;;;;21.95;75.15;98525.27;105961;1276;96717;-83
2022/08/14 08:02:14;;;;;;;27.30;18.50;;;;;;;22.00;74.98;98524.59;106006;1276;94261;-76
2022/08/14 08:04:49;;;;;;;26.60;17.90;;;;;;;22.08;74.75;98521.30;106006;1276;110117;-70
2022/08/14 08:07:25;;;;;;;25.90;17.10;;;;;;;22.06;74.70;98520.95;105975;1276;96601;-71
2022/08/14 08:10:29;;;;;;;24.30;16.30;;;;;;;22.07;74.66;98515.84;105955;1276;107812;-69
2022/08/14 08:13:13;;;;;;;23.20;15.40;;;;;;;22.17;74.77;98521.73;106017;1276;96603;-72
2022/08/14 08:15:44;;;;;;;25.50;16.00;;;;;;;22.25;74.51;98525.09;106002;1276;96524;-72
2022/08/14 08:18:15;;;;;;;24.00;16.10;;;;;;;22.27;74.51;98527.39;105904;1276;108925;-70
2022/08/14 08:20:56;;;;;;;27.50;17.20;;;;;;;22.35;74.55;98528.98;105890;1276;96521;-72
2022/08/14 08:23:28;;;;;;;24.90;16.40;;;;;;;22.38;74.52;98526.45;105851;1276;106644;-71
2022/08/14 08:26:17;;;;;;;24.10;15.70;;;;;;;22.40;74.45;98526.02;105909;1276;95958;-72
2022/08/14 08:28:57;;;;;;;24.70;17.30;;;;;;;22.42;74.55;98536.19;105846;1276;96514;-72
2022/08/14 08:31:25;;;;;;;25.60;17.90;;;;;;;22.40;74.42;98532.80;105864;1276;110180;-72
2022/08/14 08:34:05;;;;;;;25.80;17.70;;;;;;;22.36;74.26;98533.58;105986;1276;97125;-74
2022/08/14 08:36:43;;;;;;;27.10;17.50;;;;;;;22.37;74.17;98533.99;105940;1276;107893;-70
2022/08/14 08:39:14;;;;;;;24.70;15.60;;;;;;;22.44;74.21;98534.54;105934;1276;96582;-71
2022/08/14 08:41:49;;;;;;;24.90;16.10;;;;;;;22.47;74.24;98533.44;106223;1276;94642;-78
2022/08/14 08:44:27;;;;;;;;;;;;;;;22.54;74.20;98536.35;105760;1277;110087;-77
2022/08/14 08:47:06;;;;;;;24.20;16.60;;;;;;;22.59;74.26;98533.36;105840;1276;96559;-82
2022/08/14 08:49:44;;;;;;;24.20;15.90;;;;;;;22.75;74.12;98533.58;105866;1276;107774;-81
2022/08/14 08:52:28;;;;;;;23.80;14.60;;;;;;;23.02;74.01;98527.85;105981;1275;96538;-82
2022/08/14 08:55:00;;;;;;;22.70;14.80;;;;;;;23.47;73.92;98534.13;105959;1276;94289;-74
2022/08/14 08:57:36;;;;;;;23.30;15.00;;;;;;;23.81;73.73;98537.21;105974;1276;110076;-76
2022/08/14 09:00:16;;;;;;;24.90;15.40;;;;;;;23.89;73.76;98535.67;105863;1276;96546;-76
2022/08/14 09:03:02;;;;;;;24.50;15.10;;;;;;;24.03;73.64;98533.69;105812;1276;108177;-74
2022/08/14 09:05:33;;;;;;;23.90;16.00;;;;;;;24.11;73.55;98533.29;105798;1277;96640;-78
2022/08/14 09:08:25;;;;;;;24.20;15.90;;;;;;;24.34;73.62;98525.98;105930;1276;94279;-82
2022/08/14 09:11:11;;;;;;;23.90;13.90;;;;;;;24.67;73.40;98527.83;105902;1276;110138;-77
2022/08/14 09:13:51;;;;;;;21.60;13.20;;;;;;;25.13;73.19;98525.93;105777;1276;96513;-76
2022/08/14 09:16:24;;;;;;;26.10;14.80;;;;;;;25.53;73.17;98516.79;105702;1277;107796;-75
2022/08/14 09:18:54;;;;;;;23.50;14.40;;;;;;;25.62;73.22;98513.74;105943;1276;96619;-78
2022/08/14 09:21:25;;;;;;;22.30;14.00;;;;;;;25.69;72.88;98507.92;105961;1276;96617;-75
2022/08/14 09:24:00;;;;;;;26.50;15.50;;;;;;;25.76;73.06;98511.98;105837;1276;111623;-75
2022/08/14 09:26:50;;;;;;;21.90;14.40;;;;;;;25.69;72.68;98512.42;105896;1276;96823;-75
2022/08/14 09:29:21;;;;;;;28.70;15.90;;;;;;;25.50;72.65;98510.70;105948;1276;107697;-71
2022/08/14 09:32:00;;;;;;;26.30;16.40;;;;;;;25.35;72.52;98507.36;105791;1279;96688;-71
2022/08/14 09:35:02;;;;;;;27.00;17.80;;;;;;;25.24;72.26;98507.37;105906;1278;94923;-73
2022/08/14 09:38:07;;;;;;;31.20;20.70;;;;;;;25.11;72.32;98500.13;105931;1276;108599;-70
2022/08/14 09:41:06;;;;;;;30.80;19.70;;;;;;;25.01;72.12;98505.52;105931;1276;96537;-70
2022/08/14 09:44:33;;;;;;;32.20;20.20;;;;;;;24.92;71.96;98499.91;105979;1276;107797;-71
2022/08/14 09:47:04;;;;;;;31.30;19.80;;;;;;;24.85;71.91;98498.91;105317;1284;96730;-71
2022/08/14 09:49:39;;;;;;;31.30;19.30;;;;;;;24.79;71.78;98497.24;105928;1276;96529;-75
2022/08/14 09:52:13;;;;;;;32.10;19.20;;;;;;;24.72;71.70;98500.58;105935;1276;109830;-76
2022/08/14 09:55:00;;;;;;;;;;;;;;;24.71;71.75;98500.36;106031;1276;96538;-72
2022/08/14 09:57:30;;;;;;;31.70;19.70;;;;;;;24.68;71.52;98508.52;105928;1276;107761;-74
2022/08/14 10:00:13;;;;;;;32.10;20.90;;;;;;;24.66;71.40;98505.36;105816;1276;96597;-76
2022/08/14 10:03:01;;;;;;;37.50;23.20;;;;;;;24.64;71.36;98499.48;105845;1276;96593;-72
2022/08/14 10:05:39;;;;;;;31.40;21.20;;;;;;;24.72;71.25;98498.73;105912;1276;110717;-73
2022/08/14 10:08:19;;;;;;;35.70;24.70;;;;;;;24.76;71.22;98497.97;105815;1276;96707;-83
2022/08/14 10:10:56;;;;;;;35.20;24.50;;;;;;;24.78;71.20;98498.80;105794;1276;110910;-78
2022/08/14 10:13:30;;;;;;;34.20;22.40;;;;;;;24.81;71.10;98496.07;105744;1276;97013;-82
2022/08/14 10:16:18;;;;;;;33.90;24.10;;;;;;;24.84;70.94;98497.05;105681;1276;96503;-81
2022/08/14 10:19:10;;;;;;;34.90;24.50;;;;;;;24.95;70.80;98495.17;105752;1276;108943;-79
2022/08/14 10:21:44;;;;;;;37.40;25.00;;;;;;;25.11;70.80;98489.66;105661;1277;96615;-79
2022/08/14 10:24:40;;;;;;;37.20;24.00;;;;;;;25.15;70.42;98489.60;105805;1276;110468;-74
2022/08/14 10:27:36;;;;;;;36.90;23.40;;;;;;;25.15;70.67;98486.96;105895;1276;96531;-72
2022/08/14 10:30:16;;;;;;;37.20;25.40;;;;;;;25.16;70.52;98488.25;105813;1276;96683;-72
2022/08/14 10:32:49;;;;;;;40.80;29.00;;;;;;;25.21;70.41;98482.44;107551;1276;109757;-76
2022/08/14 10:35:19;;;;;;;36.80;26.80;;;;;;;25.24;70.50;98485.17;105786;1276;96546;-75
2022/08/14 10:37:51;;;;;;;127.40;51.00;;;;;;;25.30;70.39;98482.36;105747;1276;106488;-79
2022/08/14 10:40:28;;;;;;;53.00;34.30;;;;;;;25.33;70.30;98484.42;105849;1276;96584;-81
2022/08/14 10:43:19;;;;;;;64.80;38.70;;;;;;;25.37;70.24;98482.52;105893;1276;96637;-77
2022/08/14 10:46:00;;;;;;;45.10;28.20;;;;;;;25.33;69.94;98487.56;105754;1276;110119;-75
2022/08/14 10:48:57;;;;;;;42.30;27.10;;;;;;;25.30;69.96;98488.98;105875;1276;96598;-71
2022/08/14 10:51:26;;;;;;;44.50;29.10;;;;;;;25.28;69.90;98489.73;105792;1276;107859;-73
2022/08/14 10:53:57;;;;;;;42.80;28.10;;;;;;;25.25;69.96;98491.41;105959;1276;96536;-77
2022/08/14 10:56:32;;;;;;;37.00;25.80;;;;;;;25.25;69.70;98491.02;105850;1276;96566;-74
2022/08/14 10:59:07;;;;;;;39.10;28.30;;;;;;;25.22;69.62;98489.95;105900;1276;110087;-73
2022/08/14 11:01:39;;;;;;;37.20;27.00;;;;;;;25.21;69.80;98493.83;105956;1276;94813;-72
2022/08/14 11:04:27;;;;;;;35.70;26.70;;;;;;;25.19;69.68;98497.45;106028;1276;108309;-85
2022/08/14 11:06:58;;;;;;;34.10;27.10;;;;;;;25.18;69.62;98500.29;105998;1276;96433;-74
2022/08/14 11:09:26;;;;;;;36.80;24.60;;;;;;;25.16;69.48;98503.99;106064;1276;96394;-74
2022/08/14 11:11:59;;;;;;;33.00;21.70;;;;;;;25.13;69.14;98505.27;105979;1276;110043;-76
2022/08/14 11:14:58;;;;;;;30.50;20.10;;;;;;;25.07;69.21;98510.12;106021;1276;96647;-73
2022/08/14 11:17:30;;;;;;;27.80;18.60;;;;;;;25.02;69.05;98513.92;105953;1276;107752;-70
2022/08/14 11:20:05;;;;;;;28.40;19.50;;;;;;;25.01;69.18;98516.61;105961;1276;97168;-72
2022/08/14 11:22:42;;;;;;;26.40;17.60;;;;;;;25.02;68.96;98514.98;106050;1276;94375;-78
2022/08/14 11:25:30;;;;;;;25.50;17.40;;;;;;;25.04;68.92;98513.66;105932;1276;109968;-79
2022/08/14 11:28:15;;;;;;;26.20;18.40;;;;;;;25.02;69.00;98509.91;105986;1276;96505;-80
2022/08/14 11:30:49;;;;;;;27.10;18.60;;;;;;;25.03;69.06;98510.48;105869;1276;107807;-79
2022/08/14 11:33:29;;;;;;;26.30;17.90;;;;;;;25.08;68.89;98503.33;105922;1276;96642;-73
2022/08/14 11:36:04;;;;;;;27.00;19.00;;;;;;;25.13;68.87;98498.94;106009;1276;96553;-75
2022/08/14 11:38:45;;;;;;;24.40;16.60;;;;;;;25.17;68.65;98500.71;105887;1276;110106;-80
2022/08/14 11:41:15;;;;;;;23.60;15.40;;;;;;;25.21;68.82;98499.05;105917;1276;94906;-79
2022/08/14 11:43:47;;;;;;;22.90;13.40;;;;;;;25.22;68.60;98494.73;105974;1276;107591;-71
2022/08/14 11:46:27;;;;;;;21.70;14.10;;;;;;;25.22;68.65;98495.31;105883;1276;96613;-82
2022/08/14 11:49:04;;;;;;;29.40;17.40;;;;;;;25.23;68.52;98487.95;105937;1276;97006;-75
2022/08/14 11:51:35;;;;;;;24.00;15.10;;;;;;;25.24;68.50;98484.46;105971;1276;109674;-74
2022/08/14 11:54:22;;;;;;;23.70;14.40;;;;;;;25.26;68.40;98483.05;105949;1276;96495;-74
2022/08/14 11:57:04;;;;;;;25.50;16.30;;;;;;;25.31;68.32;98486.29;105851;1279;107794;-80
2022/08/14 11:59:33;;;;;;;25.50;15.30;;;;;;;25.34;68.22;98481.98;105853;1279;95409;-75
2022/08/14 12:02:13;;;;;;;23.20;14.40;;;;;;;25.37;68.31;98475.02;105915;1276;96556;-75
2022/08/14 12:05:03;;;;;;;22.70;13.30;;;;;;;25.39;68.24;98475.13;105833;1278;110269;-82
2022/08/14 12:07:49;;;;;;;22.00;14.00;;;;;;;25.35;68.02;98465.48;105962;1276;96512;-83
2022/08/14 12:10:19;;;;;;;23.70;14.20;;;;;;;25.35;68.21;98463.39;105948;1276;107956;-72
2022/08/14 12:13:14;;;;;;;23.40;14.40;;;;;;;25.38;67.95;98453.39;105892;1276;94836;-78
2022/08/14 12:16:00;;;;;;;23.10;15.30;;;;;;;25.42;68.02;98451.40;106026;1276;96525;-73
2022/08/14 12:18:42;;;;;;;;;;;;;;;25.47;67.92;98448.63;106040;1276;110138;-72